createdAt,value
2022-12-14T00:02:57.969Z,-11.10
2022-12-14T00:08:00.916Z,-11.10
2022-12-14T00:13:04.095Z,-11.20
2022-12-14T00:18:07.046Z,-11.20
2022-12-14T00:23:09.702Z,-11.40
2022-12-14T00:28:12.374Z,-11.50
2022-12-14T00:33:15.063Z,-11.50
2022-12-14T00:38:18.372Z,-11.60
2022-12-14T00:43:21.860Z,-11.60
2022-12-14T00:48:25.988Z,-11.70
2022-12-14T00:53:29.284Z,-11.80
2022-12-14T00:58:31.977Z,-11.70
2022-12-14T01:03:35.272Z,-11.90
2022-12-14T01:08:38.133Z,-12.20
2022-12-14T01:13:41.807Z,-12.10
2022-12-14T01:18:44.625Z,-12.30
2022-12-14T01:23:51.704Z,-12.30
2022-12-14T01:28:57.612Z,-12.60
2022-12-14T01:34:01.004Z,-12.50
2022-12-14T01:39:15.530Z,-12.70
2022-12-14T01:44:18.122Z,-12.50
2022-12-14T01:49:47.391Z,-12.70
2022-12-14T01:55:02.145Z,-12.60
2022-12-14T02:00:09.083Z,-12.60
2022-12-14T02:05:13.577Z,-12.60
2022-12-14T02:10:17.254Z,-12.70
2022-12-14T02:15:19.935Z,-12.60
2022-12-14T02:20:25.448Z,-12.80
2022-12-14T02:25:44.853Z,-13.10
2022-12-14T02:31:00.501Z,-13.00
2022-12-14T02:36:11.945Z,-13.00
2022-12-14T02:41:30.222Z,-12.90
2022-12-14T02:47:06.770Z,-13.10
2022-12-14T02:52:15.618Z,-13.00
2022-12-14T02:57:37.279Z,-12.90
2022-12-14T03:02:42.617Z,-12.90
2022-12-14T03:07:55.465Z,-13.00
2022-12-14T03:13:24.418Z,-12.90
2022-12-14T03:18:33.641Z,-13.10
2022-12-14T03:23:39.847Z,-12.90
2022-12-14T03:28:53.622Z,-12.90
2022-12-14T03:33:59.285Z,-13.00
2022-12-14T03:39:05.384Z,-12.80
2022-12-14T03:44:25.368Z,-12.70
2022-12-14T03:49:40.184Z,-12.70
2022-12-14T03:55:21.016Z,-12.50
2022-12-14T04:00:25.483Z,-12.70
2022-12-14T04:05:48.738Z,-12.50
2022-12-14T04:11:15.034Z,-12.30
2022-12-14T04:16:41.987Z,-12.30
2022-12-14T04:21:53.537Z,-12.10
2022-12-14T04:27:02.046Z,-12.00
2022-12-14T04:32:19.825Z,-12.20
2022-12-14T04:37:27.044Z,-12.00
2022-12-14T04:42:34.945Z,-11.80
2022-12-14T04:47:42.797Z,-11.90
2022-12-14T04:53:11.793Z,-11.90
2022-12-14T04:58:30.855Z,-11.90
2022-12-14T05:03:38.439Z,-11.90
2022-12-14T05:09:04.652Z,-11.80
2022-12-14T05:14:17.926Z,-11.80
2022-12-14T05:19:20.602Z,-11.70
2022-12-14T05:24:23.294Z,-11.80
2022-12-14T05:29:26.268Z,-11.70
2022-12-14T05:34:29.004Z,-11.80
2022-12-14T05:39:31.696Z,-11.70
2022-12-14T05:44:34.350Z,-11.90
2022-12-14T05:49:36.929Z,-11.90
2022-12-14T05:54:39.967Z,-12.10
2022-12-14T05:59:42.613Z,-12.00
2022-12-14T06:04:45.411Z,-12.10
2022-12-14T06:09:48.088Z,-12.00
2022-12-14T06:14:50.706Z,-11.90
2022-12-14T06:19:53.416Z,-11.90
2022-12-14T06:24:56.847Z,-11.90
2022-12-14T06:30:00.256Z,-11.90
2022-12-14T06:35:03.006Z,-11.90
2022-12-14T06:40:06.509Z,-11.80
2022-12-14T06:45:09.448Z,-11.80
2022-12-14T06:50:12.862Z,-11.60
2022-12-14T06:55:16.275Z,-11.50
2022-12-14T07:00:20.935Z,-11.50
2022-12-14T07:05:23.737Z,-11.30
2022-12-14T07:10:26.657Z,-11.20
2022-12-14T07:15:29.576Z,-11.10
2022-12-14T07:20:32.417Z,-10.80
2022-12-14T07:25:35.161Z,-10.80
2022-12-14T07:30:38.054Z,-10.40
2022-12-14T07:35:40.675Z,-10.30
2022-12-14T07:40:44.231Z,-10.10
2022-12-14T07:45:47.325Z,-9.60
2022-12-14T07:50:50.086Z,-9.50
2022-12-14T07:55:52.745Z,-9.30
2022-12-14T08:00:55.524Z,-8.90
2022-12-14T08:05:58.595Z,-8.30
2022-12-14T08:11:02.023Z,-7.80
2022-12-14T08:16:13.788Z,-7.30
2022-12-14T08:21:19.036Z,-6.70
2022-12-14T08:26:22.527Z,-6.30
2022-12-14T08:31:28.418Z,-6.20
2022-12-14T08:36:34.462Z,-5.30
2022-12-14T08:41:37.430Z,-4.70
2022-12-14T08:46:41.020Z,-4.40
2022-12-14T08:51:43.866Z,-3.80
2022-12-14T08:56:46.639Z,-4.60
2022-12-14T09:01:52.191Z,-4.80
2022-12-14T09:06:55.235Z,-4.60
2022-12-14T09:12:03.490Z,-4.00
2022-12-14T09:17:06.276Z,-3.70
2022-12-14T09:22:09.035Z,-3.90
2022-12-14T09:27:11.837Z,-3.80
2022-12-14T09:32:14.916Z,-4.00
2022-12-14T09:37:17.736Z,-4.30
2022-12-14T09:42:45.526Z,-4.10
2022-12-14T09:48:11.647Z,-3.40
2022-12-14T09:53:16.124Z,-2.70
2022-12-14T09:58:22.341Z,-2.90
2022-12-14T10:03:38.235Z,-3.10
2022-12-14T10:09:15.443Z,-3.20
2022-12-14T10:14:38.321Z,-3.10
2022-12-14T10:19:53.544Z,-3.40
2022-12-14T10:25:25.376Z,-3.40
2022-12-14T10:30:29.266Z,-3.60
2022-12-14T10:35:38.595Z,-3.70
2022-12-14T10:40:52.706Z,-3.40
2022-12-14T10:46:02.491Z,-3.40
2022-12-14T10:51:20.779Z,-3.40
2022-12-14T10:56:33.718Z,-3.40
2022-12-14T11:01:36.903Z,-3.30
2022-12-14T11:06:39.725Z,-3.20
2022-12-14T11:11:43.303Z,-3.00
2022-12-14T11:16:46.277Z,-3.10
2022-12-14T11:21:50.681Z,-3.00
2022-12-14T11:27:01.465Z,-3.20
2022-12-14T11:32:06.144Z,-3.30
2022-12-14T11:37:23.309Z,-3.50
2022-12-14T11:42:26.872Z,-3.70
2022-12-14T11:47:29.667Z,-3.70
2022-12-14T11:52:38.464Z,-3.70
2022-12-14T11:57:56.406Z,-3.50
2022-12-14T12:03:22.190Z,-3.30
2022-12-14T12:08:28.496Z,-3.30
2022-12-14T12:13:45.289Z,-3.20
2022-12-14T12:18:54.929Z,-3.20
2022-12-14T12:24:22.178Z,-2.90
2022-12-14T12:29:46.960Z,-3.00
2022-12-14T12:35:20.597Z,-2.80
2022-12-14T12:40:26.604Z,-3.20
2022-12-14T12:45:40.446Z,-3.00
2022-12-14T12:50:54.886Z,-3.30
2022-12-14T12:56:13.753Z,-3.40
2022-12-14T13:01:37.566Z,-3.50
2022-12-14T13:07:02.076Z,-3.60
2022-12-14T13:12:08.633Z,-3.50
2022-12-14T13:17:40.373Z,-3.40
2022-12-14T13:22:43.627Z,-3.60
2022-12-14T13:28:20.267Z,-3.60
2022-12-14T13:34:21.062Z,-3.60
2022-12-14T13:39:46.301Z,-3.80
2022-12-14T13:45:14.049Z,-3.90
2022-12-14T13:50:35.703Z,-3.90
2022-12-14T13:56:08.245Z,-4.00
2022-12-14T14:01:33.781Z,-4.00
2022-12-14T14:06:39.258Z,-4.00
2022-12-14T14:11:42.069Z,-4.30
2022-12-14T14:16:52.003Z,-4.30
2022-12-14T14:22:23.678Z,-4.30
2022-12-14T14:27:35.490Z,-4.50
2022-12-14T14:32:43.250Z,-4.50
2022-12-14T14:37:59.507Z,-4.40
2022-12-14T14:43:15.744Z,-4.50
2022-12-14T14:48:35.579Z,-4.50
2022-12-14T14:53:40.683Z,-4.50
2022-12-14T14:58:43.545Z,-4.60
2022-12-14T15:03:49.673Z,-4.60
2022-12-14T15:09:19.541Z,-4.70
2022-12-14T15:14:33.433Z,-4.70
2022-12-14T15:19:38.550Z,-4.70
2022-12-14T15:24:44.293Z,-4.80
2022-12-14T15:29:49.369Z,-4.80
2022-12-14T15:35:00.601Z,-4.80
2022-12-14T15:40:16.824Z,-4.80
2022-12-14T15:45:27.088Z,-4.80
2022-12-14T15:50:34.447Z,-4.70
2022-12-14T15:55:43.063Z,-4.80
2022-12-14T16:00:49.399Z,-4.80
2022-12-14T16:05:53.493Z,-4.80
2022-12-14T16:11:00.717Z,-4.00
2022-12-14T16:16:10.553Z,-3.40
2022-12-14T16:21:34.859Z,-4.10
2022-12-14T16:26:38.932Z,-4.40
2022-12-14T16:31:42.735Z,-4.40
2022-12-14T16:37:08.126Z,-4.50
2022-12-14T16:42:27.572Z,-4.50
2022-12-14T16:47:36.544Z,-4.60
2022-12-14T16:52:39.407Z,-4.60
2022-12-14T16:57:58.819Z,-4.60
2022-12-14T17:03:07.911Z,-4.60
2022-12-14T17:08:12.124Z,-4.50
2022-12-14T17:13:14.864Z,-4.50
2022-12-14T17:18:17.594Z,-4.50
2022-12-14T17:23:20.487Z,-4.50
2022-12-14T17:28:27.435Z,-4.50
2022-12-14T17:33:32.103Z,-4.60
2022-12-14T17:38:35.141Z,-4.40
2022-12-14T17:43:40.620Z,-4.40
2022-12-14T17:48:46.864Z,-4.30
2022-12-14T17:53:49.983Z,-4.40
2022-12-14T17:58:52.773Z,-4.40
2022-12-14T18:03:55.616Z,-4.40
2022-12-14T21:02:39.430Z,-3.20
2022-12-14T21:07:42.258Z,-2.80
2022-12-14T21:12:49.101Z,-2.70
2022-12-14T21:17:51.957Z,-2.70
2022-12-14T21:22:54.877Z,-2.60
2022-12-14T21:27:57.757Z,-2.70
2022-12-14T21:33:00.468Z,-2.60
2022-12-14T21:38:03.233Z,-2.60
2022-12-14T21:43:06.150Z,-2.50
2022-12-14T21:48:08.899Z,-2.50
2022-12-14T21:53:11.668Z,-2.50
2022-12-14T21:58:17.232Z,-2.50
2022-12-14T22:03:19.970Z,-2.50
2022-12-14T22:08:22.917Z,-2.60
2022-12-14T22:13:25.597Z,-2.60
2022-12-14T22:18:28.248Z,-2.50
2022-12-14T22:23:34.120Z,-2.50
2022-12-14T22:28:38.018Z,-2.50
2022-12-14T22:33:40.731Z,-2.60
2022-12-14T22:39:40.868Z,-2.60
2022-12-14T22:44:43.713Z,-2.60
2022-12-14T22:49:47.296Z,-2.60
2022-12-14T22:54:50.009Z,-2.60
2022-12-14T23:00:03.161Z,-2.60
2022-12-14T23:05:08.617Z,-2.60
2022-12-14T23:10:29.737Z,-2.50
2022-12-14T23:15:51.056Z,-2.50
2022-12-14T23:21:12.919Z,-2.60
2022-12-14T23:26:34.053Z,-2.50
2022-12-14T23:31:55.185Z,-2.50
2022-12-14T23:37:20.472Z,-2.50
2022-12-14T23:42:42.086Z,-2.60
2022-12-14T23:48:03.252Z,-2.60
2022-12-14T23:53:27.775Z,-2.60
2022-12-14T23:58:50.707Z,-2.60
